createdAt,value
2023-02-11T00:02:20.645Z,10.73
2023-02-11T00:07:15.081Z,10.89
2023-02-11T00:12:06.744Z,10.79
2023-02-11T00:16:59.679Z,10.89
2023-02-11T00:21:54.264Z,10.86
2023-02-11T00:26:48.644Z,10.78
2023-02-11T00:31:40.752Z,10.78
2023-02-11T00:36:36.168Z,10.80
2023-02-11T00:41:28.936Z,10.87
2023-02-11T00:46:22.320Z,11.12
2023-02-11T00:51:12.877Z,10.88
2023-02-11T00:56:03.228Z,10.72
2023-02-11T01:00:53.992Z,10.63
2023-02-11T01:05:53.055Z,10.64
2023-02-11T01:10:47.501Z,10.61
2023-02-11T01:15:41.014Z,10.66
2023-02-11T01:20:44.043Z,10.68
2023-02-11T01:25:37.844Z,10.97
2023-02-11T01:30:30.982Z,10.76
2023-02-11T01:35:23.222Z,10.67
2023-02-11T01:40:18.173Z,10.62
2023-02-11T01:45:39.891Z,10.61
2023-02-11T01:50:34.625Z,10.51
2023-02-11T01:55:38.427Z,10.42
2023-02-11T02:00:36.774Z,10.42
2023-02-11T02:05:42.827Z,10.35
2023-02-11T02:10:37.904Z,10.38
2023-02-11T02:15:33.995Z,10.24
2023-02-11T02:20:54.720Z,10.21
2023-02-11T02:26:30.724Z,10.19
2023-02-11T02:31:47.249Z,10.16
2023-02-11T02:36:47.565Z,9.90
2023-02-11T02:41:42.217Z,9.88
2023-02-11T02:46:35.512Z,9.97
2023-02-11T02:51:44.520Z,9.91
2023-02-11T02:56:48.919Z,9.86
2023-02-11T03:01:51.545Z,9.84
2023-02-11T03:06:47.479Z,10.17
2023-02-11T03:11:47.031Z,10.00
2023-02-11T03:16:43.144Z,9.89
2023-02-11T03:21:37.785Z,10.00
2023-02-11T03:26:37.007Z,10.14
2023-02-11T03:31:41.297Z,10.06
2023-02-11T03:36:39.746Z,9.98
2023-02-11T03:41:35.104Z,9.96
2023-02-11T03:46:35.400Z,10.00
2023-02-11T03:51:37.489Z,9.84
2023-02-11T03:56:32.366Z,9.93
2023-02-11T04:01:22.825Z,9.77
2023-02-11T04:06:15.466Z,9.88
2023-02-11T04:11:05.217Z,10.15
2023-02-11T04:15:59.169Z,9.58
2023-02-11T04:20:51.041Z,9.90
2023-02-11T04:25:45.926Z,9.88
2023-02-11T04:30:37.803Z,9.83
2023-02-11T04:35:34.216Z,9.78
2023-02-11T04:40:26.976Z,8.67
2023-02-11T04:45:24.250Z,9.50
2023-02-11T04:50:14.930Z,9.95
2023-02-11T04:55:07.063Z,9.87
2023-02-11T04:59:57.290Z,9.84
2023-02-11T05:04:50.142Z,9.70
2023-02-11T05:09:41.892Z,9.49
2023-02-11T05:14:37.939Z,9.35
2023-02-11T05:19:34.138Z,9.35
2023-02-11T05:24:28.922Z,9.40
2023-02-11T05:29:20.596Z,9.74
2023-02-11T05:34:12.716Z,9.55
2023-02-11T05:39:03.729Z,8.64
2023-02-11T05:43:57.508Z,8.75
2023-02-11T05:48:50.208Z,8.78
2023-02-11T05:53:42.256Z,9.00
2023-02-11T05:58:41.565Z,8.83
2023-02-11T06:03:34.241Z,8.78
2023-02-11T06:08:24.773Z,8.87
2023-02-11T06:13:17.944Z,8.79
2023-02-11T06:18:10.256Z,8.74
2023-02-11T06:23:04.251Z,8.76
2023-02-11T06:27:55.634Z,8.75
2023-02-11T06:32:46.888Z,8.75
2023-02-11T06:37:38.355Z,8.76
2023-02-11T06:42:32.320Z,8.71
2023-02-11T06:47:34.161Z,8.83
2023-02-11T06:52:26.117Z,8.89
2023-02-11T06:57:16.840Z,8.89
2023-02-11T07:02:15.317Z,8.91
2023-02-11T07:07:10.164Z,8.93
2023-02-11T07:12:02.030Z,8.88
2023-02-11T07:16:57.529Z,8.94
2023-02-11T07:21:55.438Z,8.93
2023-02-11T07:26:46.893Z,8.86
2023-02-11T07:31:42.220Z,8.84
2023-02-11T07:36:35.428Z,8.91
2023-02-11T07:41:29.565Z,8.95
2023-02-11T07:46:23.047Z,8.93
2023-02-11T07:51:15.522Z,8.99
2023-02-11T07:56:07.661Z,9.01
2023-02-11T08:01:07.449Z,9.14
2023-02-11T08:06:03.647Z,9.29
2023-02-11T08:10:56.556Z,9.27
2023-02-11T08:15:49.922Z,9.38
2023-02-11T08:20:47.119Z,9.53
2023-02-11T08:25:38.692Z,9.66
2023-02-11T08:30:29.930Z,9.74
2023-02-11T08:35:21.424Z,9.72
2023-02-11T08:40:15.987Z,9.96
2023-02-11T08:45:08.750Z,10.20
2023-02-11T08:50:03.659Z,11.12
2023-02-11T08:54:54.301Z,11.21
2023-02-11T08:59:51.383Z,11.35
2023-02-11T09:04:42.768Z,11.41
2023-02-11T09:09:33.768Z,11.40
2023-02-11T09:14:26.115Z,11.43
2023-02-11T09:19:28.445Z,11.53
2023-02-11T09:24:19.666Z,11.64
2023-02-11T09:29:12.390Z,11.70
2023-02-11T09:34:04.318Z,11.74
2023-02-11T09:38:57.855Z,11.84
2023-02-11T09:43:51.658Z,11.77
2023-02-11T09:48:45.307Z,11.64
2023-02-11T09:53:41.625Z,11.79
2023-02-11T09:58:36.876Z,11.90
2023-02-11T10:03:41.104Z,12.02
2023-02-11T10:08:38.316Z,12.11
2023-02-11T10:13:53.469Z,12.21
2023-02-11T10:18:50.922Z,12.12
2023-02-11T10:23:44.738Z,12.30
2023-02-11T10:28:37.085Z,12.40
2023-02-11T10:33:32.962Z,12.52
2023-02-11T10:38:29.197Z,12.58
2023-02-11T10:43:20.907Z,12.60
2023-02-11T10:48:31.276Z,12.72
2023-02-11T10:53:25.819Z,12.70
2023-02-11T10:58:25.278Z,12.86
2023-02-11T11:03:20.659Z,12.89
2023-02-11T11:08:17.425Z,13.00
2023-02-11T11:13:26.743Z,13.01
2023-02-11T11:18:23.463Z,13.10
2023-02-11T11:23:19.306Z,13.24
2023-02-11T11:28:10.525Z,13.27
2023-02-11T11:33:02.670Z,13.33
2023-02-11T11:38:11.215Z,13.41
2023-02-11T11:43:11.477Z,13.49
2023-02-11T11:48:03.062Z,13.55
2023-02-11T11:52:58.424Z,13.56
2023-02-11T11:57:52.698Z,13.58
2023-02-11T12:03:02.241Z,13.62
2023-02-11T12:07:57.961Z,13.67
2023-02-11T12:12:54.487Z,13.76
2023-02-11T12:18:01.463Z,13.87
2023-02-11T12:22:56.419Z,13.87
2023-02-11T12:27:51.858Z,13.97
2023-02-11T12:32:48.460Z,13.97
2023-02-11T12:37:52.902Z,13.93
2023-02-11T12:43:02.676Z,13.97
2023-02-11T12:48:07.223Z,14.04
2023-02-11T12:53:07.745Z,14.18
2023-02-11T12:58:00.972Z,14.15
2023-02-11T13:03:00.144Z,14.24
2023-02-11T13:07:51.510Z,14.30
2023-02-11T13:12:59.631Z,14.47
2023-02-11T13:17:53.713Z,14.47
2023-02-11T13:22:51.266Z,14.55
2023-02-11T13:27:52.022Z,14.62
2023-02-11T13:33:04.961Z,14.56
2023-02-11T13:37:58.132Z,14.70
2023-02-11T13:47:10.922Z,10.17
2023-02-11T13:52:06.901Z,10.19
2023-02-11T14:02:20.126Z,10.17
2023-02-11T14:07:38.847Z,10.13
2023-02-11T14:12:38.902Z,10.18
2023-02-11T14:17:36.816Z,10.21
2023-02-11T14:22:27.571Z,10.13
2023-02-11T14:27:23.585Z,10.15
2023-02-11T14:32:27.322Z,10.21
2023-02-11T14:37:22.854Z,10.26
2023-02-11T14:42:21.173Z,10.24
2023-02-11T14:47:19.462Z,10.25
2023-02-11T14:52:21.892Z,10.22
2023-02-11T14:57:17.012Z,10.28
2023-02-11T15:02:23.689Z,10.25
2023-02-11T15:07:21.194Z,10.23
2023-02-11T15:12:20.330Z,10.22
2023-02-11T15:17:11.750Z,10.19
2023-02-11T15:22:02.615Z,10.14
2023-02-11T15:27:01.829Z,10.12
2023-02-11T15:32:05.649Z,10.11
2023-02-11T15:36:58.365Z,10.04
2023-02-11T15:41:49.951Z,10.00
2023-02-11T15:46:48.196Z,9.90
2023-02-11T15:51:41.166Z,9.82
2023-02-11T15:56:34.612Z,9.87
2023-02-11T16:01:33.902Z,9.84
2023-02-11T16:06:29.226Z,9.86
2023-02-11T16:11:30.269Z,9.79
2023-02-11T16:16:27.405Z,9.77
2023-02-11T16:21:24.019Z,9.71
2023-02-11T16:26:29.924Z,9.64
2023-02-11T16:31:20.068Z,9.55
2023-02-11T16:36:17.589Z,9.52
2023-02-11T16:41:12.241Z,9.47
2023-02-11T16:46:06.276Z,9.43
2023-02-11T16:51:02.152Z,9.41
2023-02-11T16:55:53.544Z,9.35
2023-02-11T17:00:49.653Z,9.29
2023-02-11T17:05:58.302Z,9.30
2023-02-11T17:10:48.098Z,9.24
2023-02-11T17:15:38.117Z,9.20
2023-02-11T17:20:28.530Z,9.20
2023-02-11T17:25:24.986Z,9.19
2023-02-11T17:30:18.150Z,9.31
2023-02-11T17:35:09.702Z,9.20
2023-02-11T17:40:06.125Z,9.13
2023-02-11T17:45:01.991Z,9.05
2023-02-11T17:49:52.555Z,9.05
2023-02-11T17:54:42.976Z,9.07
2023-02-11T17:59:36.900Z,9.10
2023-02-11T18:04:30.116Z,9.10
2023-02-11T18:09:22.016Z,9.03
2023-02-11T18:14:13.715Z,9.03
2023-02-11T18:19:07.001Z,9.05
2023-02-11T18:24:06.057Z,9.06
2023-02-11T18:28:58.813Z,9.00
2023-02-11T18:33:49.764Z,8.99
2023-02-11T18:38:40.358Z,8.94
2023-02-11T18:43:37.118Z,8.88
2023-02-11T18:48:30.614Z,8.83
2023-02-11T18:53:21.109Z,8.91
2023-02-11T18:58:12.213Z,8.92
2023-02-11T19:03:05.516Z,8.91
2023-02-11T19:07:55.621Z,8.80
2023-02-11T19:12:47.598Z,8.74
2023-02-11T19:17:37.988Z,8.71
2023-02-11T19:22:32.785Z,8.65
2023-02-11T19:27:23.318Z,8.67
2023-02-11T19:32:13.693Z,8.61
2023-02-11T19:37:06.716Z,8.62
2023-02-11T19:42:01.674Z,8.59
2023-02-11T19:46:53.783Z,8.63
2023-02-11T19:51:46.279Z,8.60
2023-02-11T19:56:38.998Z,8.62
2023-02-11T20:01:35.738Z,8.58
2023-02-11T20:06:28.987Z,8.48
2023-02-11T20:11:21.012Z,8.49
2023-02-11T20:16:13.127Z,8.43
2023-02-11T20:21:11.959Z,8.40
2023-02-11T20:26:11.674Z,8.42
2023-02-11T20:31:06.289Z,8.39
2023-02-11T20:36:02.999Z,8.39
2023-02-11T20:40:59.006Z,8.38
2023-02-11T20:45:53.038Z,8.45
2023-02-11T20:50:48.258Z,8.39
2023-02-11T20:55:43.687Z,8.37
2023-02-11T21:00:38.302Z,8.37
2023-02-11T21:10:44.627Z,8.40
2023-02-11T21:15:39.118Z,8.38
2023-02-11T21:20:33.372Z,8.37
2023-02-11T21:25:29.368Z,8.35
2023-02-11T21:30:27.054Z,8.38
2023-02-11T21:35:20.753Z,8.30
2023-02-11T21:40:15.108Z,8.29
2023-02-11T21:45:06.600Z,8.29
2023-02-11T21:49:57.312Z,8.28
2023-02-11T21:54:52.828Z,8.35
2023-02-11T22:04:52.274Z,8.23
2023-02-11T22:09:43.455Z,8.21
2023-02-11T22:14:41.636Z,8.19
2023-02-11T22:19:33.008Z,8.18
2023-02-11T22:24:25.714Z,8.19
2023-02-11T22:29:16.446Z,8.23
2023-02-11T22:34:10.129Z,8.22
2023-02-11T22:39:03.725Z,8.25
2023-02-11T22:44:08.942Z,8.27
2023-02-11T22:49:02.623Z,8.23
2023-02-11T22:53:57.957Z,8.26
2023-02-11T22:58:49.004Z,8.26
2023-02-11T23:03:41.410Z,8.27
2023-02-11T23:08:31.756Z,8.23
2023-02-11T23:13:24.206Z,8.12
2023-02-11T23:18:15.186Z,8.18
2023-02-11T23:23:06.403Z,8.16
2023-02-11T23:28:03.621Z,8.22
2023-02-11T23:32:57.413Z,8.16
2023-02-11T23:37:47.418Z,8.21
2023-02-11T23:42:37.943Z,8.21
2023-02-11T23:47:28.949Z,8.23
2023-02-11T23:52:24.756Z,8.21
2023-02-11T23:57:18.636Z,8.22
